sensor_id;sensor_type;location;lat;lon;timestamp;pressure;altitude;pressure_sealevel;temperature;humidity
64628;BME280;59036;50.960;0.314;2022-12-07T00:00:36;100534.91;;;1.43;100.00
64628;BME280;59036;50.960;0.314;2022-12-07T00:03:03;100533.23;;;1.08;100.00
64628;BME280;59036;50.960;0.314;2022-12-07T00:05:31;100526.90;;;2.00;100.00
64628;BME280;59036;50.960;0.314;2022-12-07T00:07:58;100521.84;;;1.80;100.00
64628;BME280;59036;50.960;0.314;2022-12-07T00:10:25;100520.40;;;1.77;100.00
64628;BME280;59036;50.960;0.314;2022-12-07T00:12:53;100519.83;;;1.38;100.00
64628;BME280;59036;50.960;0.314;2022-12-07T00:15:20;100519.18;;;1.67;100.00
64628;BME280;59036;50.960;0.314;2022-12-07T00:17:47;100518.41;;;1.51;100.00
64628;BME280;59036;50.960;0.314;2022-12-07T00:20:15;100520.94;;;0.92;100.00
64628;BME280;59036;50.960;0.314;2022-12-07T00:22:42;100523.40;;;1.05;100.00
64628;BME280;59036;50.960;0.314;2022-12-07T00:25:09;100524.71;;;0.89;100.00
64628;BME280;59036;50.960;0.314;2022-12-07T00:27:36;100528.16;;;1.52;100.00
64628;BME280;59036;50.960;0.314;2022-12-07T00:30:04;100529.09;;;1.51;100.00
64628;BME280;59036;50.960;0.314;2022-12-07T00:32:31;100527.46;;;0.49;100.00
64628;BME280;59036;50.960;0.314;2022-12-07T00:34:58;100527.88;;;1.19;100.00
64628;BME280;59036;50.960;0.314;2022-12-07T00:37:25;100525.74;;;1.10;100.00
64628;BME280;59036;50.960;0.314;2022-12-07T00:39:53;100521.86;;;0.90;100.00
64628;BME280;59036;50.960;0.314;2022-12-07T00:42:20;100519.23;;;0.84;100.00
64628;BME280;59036;50.960;0.314;2022-12-07T00:44:47;100517.88;;;1.35;100.00
64628;BME280;59036;50.960;0.314;2022-12-07T00:47:15;100515.04;;;0.73;100.00
64628;BME280;59036;50.960;0.314;2022-12-07T00:49:42;100517.15;;;0.44;100.00
64628;BME280;59036;50.960;0.314;2022-12-07T00:52:09;100514.63;;;0.50;100.00
64628;BME280;59036;50.960;0.314;2022-12-07T00:54:36;100513.63;;;0.76;100.00
64628;BME280;59036;50.960;0.314;2022-12-07T00:57:03;100510.60;;;0.73;100.00
64628;BME280;59036;50.960;0.314;2022-12-07T00:59:31;100510.53;;;1.03;100.00
64628;BME280;59036;50.960;0.314;2022-12-07T01:01:58;100505.27;;;1.13;100.00
64628;BME280;59036;50.960;0.314;2022-12-07T01:04:25;100505.77;;;0.77;100.00
64628;BME280;59036;50.960;0.314;2022-12-07T01:06:52;100504.68;;;1.04;100.00
64628;BME280;59036;50.960;0.314;2022-12-07T01:09:19;100501.56;;;0.73;100.00
64628;BME280;59036;50.960;0.314;2022-12-07T01:11:46;100497.20;;;0.30;100.00
64628;BME280;59036;50.960;0.314;2022-12-07T01:14:14;100501.51;;;0.76;100.00
64628;BME280;59036;50.960;0.314;2022-12-07T01:16:41;100497.95;;;1.11;100.00
64628;BME280;59036;50.960;0.314;2022-12-07T01:19:08;100500.16;;;0.84;100.00
64628;BME280;59036;50.960;0.314;2022-12-07T01:21:36;100496.81;;;0.86;100.00
64628;BME280;59036;50.960;0.314;2022-12-07T01:24:07;100498.83;;;0.26;100.00
64628;BME280;59036;50.960;0.314;2022-12-07T01:26:36;100496.31;;;0.76;100.00
64628;BME280;59036;50.960;0.314;2022-12-07T01:29:04;100493.62;;;0.89;100.00
64628;BME280;59036;50.960;0.314;2022-12-07T01:31:31;100493.57;;;1.14;100.00
64628;BME280;59036;50.960;0.314;2022-12-07T01:33:59;100488.20;;;1.09;100.00
64628;BME280;59036;50.960;0.314;2022-12-07T01:36:28;100484.62;;;0.70;100.00
64628;BME280;59036;50.960;0.314;2022-12-07T01:38:58;100488.93;;;0.39;100.00
64628;BME280;59036;50.960;0.314;2022-12-07T01:41:28;100488.72;;;0.90;100.00
64628;BME280;59036;50.960;0.314;2022-12-07T01:44:31;100485.65;;;0.54;100.00
64628;BME280;59036;50.960;0.314;2022-12-07T01:46:59;100482.85;;;0.65;100.00
64628;BME280;59036;50.960;0.314;2022-12-07T01:49:30;100486.24;;;0.32;100.00
64628;BME280;59036;50.960;0.314;2022-12-07T01:52:03;100485.59;;;0.03;100.00
64628;BME280;59036;50.960;0.314;2022-12-07T01:54:34;100486.56;;;0.05;100.00
64628;BME280;59036;50.960;0.314;2022-12-07T01:57:03;100488.12;;;0.31;100.00
64628;BME280;59036;50.960;0.314;2022-12-07T01:59:31;100488.23;;;0.06;100.00
64628;BME280;59036;50.960;0.314;2022-12-07T02:01:59;100488.74;;;0.45;100.00
64628;BME280;59036;50.960;0.314;2022-12-07T02:04:29;100487.14;;;-0.01;100.00
64628;BME280;59036;50.960;0.314;2022-12-07T02:06:57;100482.84;;;0.14;100.00
64628;BME280;59036;50.960;0.314;2022-12-07T02:09:25;100487.61;;;0.36;100.00
64628;BME280;59036;50.960;0.314;2022-12-07T02:11:52;100492.84;;;0.39;100.00
64628;BME280;59036;50.960;0.314;2022-12-07T02:14:20;100492.68;;;0.52;100.00
64628;BME280;59036;50.960;0.314;2022-12-07T02:16:57;100496.94;;;-0.40;100.00
64628;BME280;59036;50.960;0.314;2022-12-07T02:20:45;100499.35;;;0.50;100.00
64628;BME280;59036;50.960;0.314;2022-12-07T02:25:47;100496.43;;;0.76;100.00
64628;BME280;59036;50.960;0.314;2022-12-07T02:28:29;100495.53;;;1.07;100.00
64628;BME280;59036;50.960;0.314;2022-12-07T02:31:02;100496.19;;;0.75;100.00
64628;BME280;59036;50.960;0.314;2022-12-07T02:33:36;100490.40;;;0.89;100.00
64628;BME280;59036;50.960;0.314;2022-12-07T02:36:10;100488.48;;;0.74;100.00
64628;BME280;59036;50.960;0.314;2022-12-07T02:38:44;100489.90;;;1.26;100.00
64628;BME280;59036;50.960;0.314;2022-12-07T02:41:19;100489.58;;;0.63;100.00
64628;BME280;59036;50.960;0.314;2022-12-07T02:43:53;100487.90;;;0.93;100.00
64628;BME280;59036;50.960;0.314;2022-12-07T02:46:23;100486.49;;;0.93;100.00
64628;BME280;59036;50.960;0.314;2022-12-07T02:48:54;100488.64;;;0.70;100.00
64628;BME280;59036;50.960;0.314;2022-12-07T02:51:21;100491.21;;;0.26;100.00
64628;BME280;59036;50.960;0.314;2022-12-07T02:53:48;100485.93;;;0.61;100.00
64628;BME280;59036;50.960;0.314;2022-12-07T02:56:26;100484.76;;;0.65;100.00
64628;BME280;59036;50.960;0.314;2022-12-07T02:59:04;100488.51;;;0.66;100.00
64628;BME280;59036;50.960;0.314;2022-12-07T03:01:42;100489.48;;;1.04;100.00
64628;BME280;59036;50.960;0.314;2022-12-07T03:04:25;100484.14;;;1.28;100.00
64628;BME280;59036;50.960;0.314;2022-12-07T03:07:03;100483.17;;;1.76;100.00
64628;BME280;59036;50.960;0.314;2022-12-07T03:09:36;100484.97;;;1.84;100.00
64628;BME280;59036;50.960;0.314;2022-12-07T03:12:08;100483.12;;;1.70;100.00
64628;BME280;59036;50.960;0.314;2022-12-07T03:14:41;100483.67;;;1.22;100.00
64628;BME280;59036;50.960;0.314;2022-12-07T03:17:13;100480.60;;;1.74;100.00
64628;BME280;59036;50.960;0.314;2022-12-07T03:19:43;100476.50;;;1.25;100.00
64628;BME280;59036;50.960;0.314;2022-12-07T03:22:13;100476.07;;;0.69;100.00
64628;BME280;59036;50.960;0.314;2022-12-07T03:24:43;100477.49;;;1.15;100.00
64628;BME280;59036;50.960;0.314;2022-12-07T03:27:15;100476.50;;;1.62;100.00
64628;BME280;59036;50.960;0.314;2022-12-07T03:29:47;100479.25;;;1.06;100.00
64628;BME280;59036;50.960;0.314;2022-12-07T03:32:20;100480.67;;;1.08;100.00
64628;BME280;59036;50.960;0.314;2022-12-07T03:34:54;100478.94;;;0.88;100.00
64628;BME280;59036;50.960;0.314;2022-12-07T03:37:28;100477.55;;;1.54;100.00
64628;BME280;59036;50.960;0.314;2022-12-07T03:40:02;100475.44;;;0.39;100.00
64628;BME280;59036;50.960;0.314;2022-12-07T03:42:31;100473.22;;;0.32;100.00
64628;BME280;59036;50.960;0.314;2022-12-07T03:45:00;100471.13;;;1.40;100.00
64628;BME280;59036;50.960;0.314;2022-12-07T03:47:31;100470.99;;;1.33;100.00
64628;BME280;59036;50.960;0.314;2022-12-07T03:50:04;100470.04;;;0.60;100.00
64628;BME280;59036;50.960;0.314;2022-12-07T03:52:39;100468.55;;;0.52;100.00
64628;BME280;59036;50.960;0.314;2022-12-07T03:55:11;100464.15;;;1.07;100.00
64628;BME280;59036;50.960;0.314;2022-12-07T03:57:43;100465.53;;;0.54;100.00
64628;BME280;59036;50.960;0.314;2022-12-07T04:00:13;100463.55;;;0.70;100.00
64628;BME280;59036;50.960;0.314;2022-12-07T04:02:41;100462.23;;;1.03;100.00
64628;BME280;59036;50.960;0.314;2022-12-07T04:05:09;100458.78;;;1.59;100.00
64628;BME280;59036;50.960;0.314;2022-12-07T04:07:36;100460.88;;;0.47;100.00
64628;BME280;59036;50.960;0.314;2022-12-07T04:10:04;100458.24;;;0.91;100.00
64628;BME280;59036;50.960;0.314;2022-12-07T04:12:31;100459.71;;;1.83;100.00
64628;BME280;59036;50.960;0.314;2022-12-07T04:14:58;100461.65;;;1.93;100.00
64628;BME280;59036;50.960;0.314;2022-12-07T04:17:26;100460.82;;;1.76;100.00
64628;BME280;59036;50.960;0.314;2022-12-07T04:19:53;100459.14;;;1.39;100.00
64628;BME280;59036;50.960;0.314;2022-12-07T04:22:21;100459.12;;;1.70;100.00
64628;BME280;59036;50.960;0.314;2022-12-07T04:24:48;100465.32;;;0.40;100.00
64628;BME280;59036;50.960;0.314;2022-12-07T04:27:16;100463.95;;;1.22;100.00
64628;BME280;59036;50.960;0.314;2022-12-07T04:29:43;100462.49;;;1.06;100.00
64628;BME280;59036;50.960;0.314;2022-12-07T04:32:11;100460.38;;;0.99;100.00
64628;BME280;59036;50.960;0.314;2022-12-07T04:34:38;100460.93;;;1.20;100.00
64628;BME280;59036;50.960;0.314;2022-12-07T04:37:06;100458.10;;;0.85;100.00
64628;BME280;59036;50.960;0.314;2022-12-07T04:39:33;100458.11;;;0.48;100.00
64628;BME280;59036;50.960;0.314;2022-12-07T04:42:02;100460.30;;;0.22;100.00
64628;BME280;59036;50.960;0.314;2022-12-07T04:44:29;100460.85;;;0.84;100.00
64628;BME280;59036;50.960;0.314;2022-12-07T04:46:56;100462.72;;;0.39;100.00
64628;BME280;59036;50.960;0.314;2022-12-07T04:49:24;100465.89;;;1.07;100.00
64628;BME280;59036;50.960;0.314;2022-12-07T04:51:52;100464.46;;;1.05;100.00
64628;BME280;59036;50.960;0.314;2022-12-07T04:54:20;100465.69;;;1.09;100.00
64628;BME280;59036;50.960;0.314;2022-12-07T04:56:47;100460.01;;;1.99;100.00
64628;BME280;59036;50.960;0.314;2022-12-07T04:59:15;100460.01;;;1.15;100.00
64628;BME280;59036;50.960;0.314;2022-12-07T05:01:43;100462.25;;;1.24;100.00
64628;BME280;59036;50.960;0.314;2022-12-07T05:04:12;100458.47;;;1.62;100.00
64628;BME280;59036;50.960;0.314;2022-12-07T05:06:38;100457.63;;;2.04;100.00
64628;BME280;59036;50.960;0.314;2022-12-07T05:09:06;100456.83;;;1.24;100.00
64628;BME280;59036;50.960;0.314;2022-12-07T05:11:35;100455.63;;;2.23;100.00
64628;BME280;59036;50.960;0.314;2022-12-07T05:14:04;100454.54;;;2.02;100.00
64628;BME280;59036;50.960;0.314;2022-12-07T05:16:32;100451.52;;;1.31;100.00
64628;BME280;59036;50.960;0.314;2022-12-07T05:19:00;100448.93;;;2.02;100.00
64628;BME280;59036;50.960;0.314;2022-12-07T05:21:27;100450.29;;;1.56;100.00
64628;BME280;59036;50.960;0.314;2022-12-07T05:23:54;100447.29;;;0.93;100.00
64628;BME280;59036;50.960;0.314;2022-12-07T05:26:21;100450.75;;;0.79;100.00
64628;BME280;59036;50.960;0.314;2022-12-07T05:28:50;100449.65;;;0.99;100.00
64628;BME280;59036;50.960;0.314;2022-12-07T05:31:18;100447.02;;;0.90;100.00
64628;BME280;59036;50.960;0.314;2022-12-07T05:33:46;100448.40;;;0.26;100.00
64628;BME280;59036;50.960;0.314;2022-12-07T05:36:13;100447.68;;;-0.22;100.00
64628;BME280;59036;50.960;0.314;2022-12-07T05:38:40;100449.22;;;0.14;100.00
64628;BME280;59036;50.960;0.314;2022-12-07T05:41:08;100446.16;;;0.39;100.00
64628;BME280;59036;50.960;0.314;2022-12-07T05:43:35;100448.49;;;0.15;100.00
64628;BME280;59036;50.960;0.314;2022-12-07T05:46:03;100442.80;;;0.01;100.00
64628;BME280;59036;50.960;0.314;2022-12-07T05:48:30;100441.20;;;-0.15;100.00
64628;BME280;59036;50.960;0.314;2022-12-07T05:50:57;100439.03;;;0.38;100.00
64628;BME280;59036;50.960;0.314;2022-12-07T05:53:24;100435.76;;;0.37;100.00
64628;BME280;59036;50.960;0.314;2022-12-07T05:55:52;100437.11;;;0.44;100.00
64628;BME280;59036;50.960;0.314;2022-12-07T05:58:19;100438.71;;;0.12;100.00
64628;BME280;59036;50.960;0.314;2022-12-07T06:00:47;100439.03;;;-0.03;100.00
64628;BME280;59036;50.960;0.314;2022-12-07T06:03:19;100436.40;;;-0.53;100.00
64628;BME280;59036;50.960;0.314;2022-12-07T06:05:46;100433.83;;;0.26;100.00
64628;BME280;59036;50.960;0.314;2022-12-07T06:08:14;100428.54;;;-0.06;100.00
64628;BME280;59036;50.960;0.314;2022-12-07T06:10:41;100430.88;;;-0.10;100.00
64628;BME280;59036;50.960;0.314;2022-12-07T06:13:09;100427.88;;;0.24;100.00
64628;BME280;59036;50.960;0.314;2022-12-07T06:15:36;100423.58;;;0.57;100.00
64628;BME280;59036;50.960;0.314;2022-12-07T06:18:03;100425.41;;;0.45;100.00
64628;BME280;59036;50.960;0.314;2022-12-07T06:20:30;100424.97;;;1.00;100.00
64628;BME280;59036;50.960;0.314;2022-12-07T06:22:57;100419.90;;;0.23;100.00
64628;BME280;59036;50.960;0.314;2022-12-07T06:25:24;100420.58;;;0.09;100.00
64628;BME280;59036;50.960;0.314;2022-12-07T06:27:51;100423.08;;;-0.45;100.00
64628;BME280;59036;50.960;0.314;2022-12-07T06:30:19;100418.48;;;0.23;100.00
64628;BME280;59036;50.960;0.314;2022-12-07T06:32:46;100423.36;;;0.20;100.00
64628;BME280;59036;50.960;0.314;2022-12-07T06:35:13;100426.30;;;0.24;100.00
64628;BME280;59036;50.960;0.314;2022-12-07T06:37:41;100428.13;;;0.90;100.00
64628;BME280;59036;50.960;0.314;2022-12-07T06:40:09;100424.23;;;0.81;100.00
64628;BME280;59036;50.960;0.314;2022-12-07T06:42:37;100427.33;;;0.81;100.00
64628;BME280;59036;50.960;0.314;2022-12-07T06:45:04;100429.71;;;1.07;100.00
64628;BME280;59036;50.960;0.314;2022-12-07T06:47:31;100427.86;;;1.15;100.00
64628;BME280;59036;50.960;0.314;2022-12-07T06:49:58;100433.12;;;-0.02;100.00
64628;BME280;59036;50.960;0.314;2022-12-07T06:52:25;100433.71;;;-0.05;100.00
64628;BME280;59036;50.960;0.314;2022-12-07T06:54:53;100431.73;;;-0.10;100.00
64628;BME280;59036;50.960;0.314;2022-12-07T06:57:20;100427.77;;;0.61;100.00
64628;BME280;59036;50.960;0.314;2022-12-07T06:59:47;100431.05;;;0.31;100.00
64628;BME280;59036;50.960;0.314;2022-12-07T07:02:14;100432.59;;;0.11;100.00
64628;BME280;59036;50.960;0.314;2022-12-07T07:04:41;100434.06;;;0.36;100.00
64628;BME280;59036;50.960;0.314;2022-12-07T07:07:08;100435.94;;;-0.17;100.00
64628;BME280;59036;50.960;0.314;2022-12-07T07:09:35;100441.72;;;-0.35;100.00
64628;BME280;59036;50.960;0.314;2022-12-07T07:12:02;100443.44;;;-0.39;100.00
64628;BME280;59036;50.960;0.314;2022-12-07T07:14:29;100447.15;;;0.24;100.00
64628;BME280;59036;50.960;0.314;2022-12-07T07:16:56;100443.49;;;0.29;100.00
64628;BME280;59036;50.960;0.314;2022-12-07T07:19:23;100445.24;;;0.26;100.00
64628;BME280;59036;50.960;0.314;2022-12-07T07:21:50;100447.75;;;-0.03;100.00
64628;BME280;59036;50.960;0.314;2022-12-07T07:24:17;100451.25;;;0.10;100.00
64628;BME280;59036;50.960;0.314;2022-12-07T07:26:45;100452.73;;;0.39;100.00
64628;BME280;59036;50.960;0.314;2022-12-07T07:29:12;100455.43;;;0.23;100.00
64628;BME280;59036;50.960;0.314;2022-12-07T07:31:39;100455.71;;;0.27;100.00
64628;BME280;59036;50.960;0.314;2022-12-07T07:34:06;100451.63;;;0.24;100.00
64628;BME280;59036;50.960;0.314;2022-12-07T07:36:33;100452.20;;;0.08;100.00
64628;BME280;59036;50.960;0.314;2022-12-07T07:39:00;100449.10;;;0.21;100.00
64628;BME280;59036;50.960;0.314;2022-12-07T07:41:27;100445.06;;;0.46;100.00
64628;BME280;59036;50.960;0.314;2022-12-07T07:43:54;100437.89;;;0.90;100.00
64628;BME280;59036;50.960;0.314;2022-12-07T07:46:21;100440.96;;;0.80;100.00
64628;BME280;59036;50.960;0.314;2022-12-07T07:48:48;100442.41;;;0.83;100.00
64628;BME280;59036;50.960;0.314;2022-12-07T07:51:15;100441.64;;;1.47;100.00
64628;BME280;59036;50.960;0.314;2022-12-07T07:53:43;100443.01;;;2.02;100.00
64628;BME280;59036;50.960;0.314;2022-12-07T07:56:10;100445.24;;;1.28;100.00
64628;BME280;59036;50.960;0.314;2022-12-07T07:58:37;100447.93;;;1.35;100.00
64628;BME280;59036;50.960;0.314;2022-12-07T08:01:05;100455.32;;;0.60;100.00
64628;BME280;59036;50.960;0.314;2022-12-07T08:03:32;100454.34;;;0.68;100.00
64628;BME280;59036;50.960;0.314;2022-12-07T08:05:59;100458.31;;;1.03;100.00
64628;BME280;59036;50.960;0.314;2022-12-07T08:08:27;100465.61;;;0.49;100.00
64628;BME280;59036;50.960;0.314;2022-12-07T08:10:54;100467.41;;;0.11;100.00
64628;BME280;59036;50.960;0.314;2022-12-07T08:13:21;100462.93;;;0.53;100.00
64628;BME280;59036;50.960;0.314;2022-12-07T08:15:49;100465.52;;;0.68;100.00
64628;BME280;59036;50.960;0.314;2022-12-07T08:18:16;100469.44;;;0.66;100.00
64628;BME280;59036;50.960;0.314;2022-12-07T08:20:43;100471.77;;;1.35;100.00
64628;BME280;59036;50.960;0.314;2022-12-07T08:23:11;100472.16;;;2.10;100.00
64628;BME280;59036;50.960;0.314;2022-12-07T08:25:38;100475.50;;;0.70;100.00
64628;BME280;59036;50.960;0.314;2022-12-07T08:28:06;100477.39;;;0.81;100.00
64628;BME280;59036;50.960;0.314;2022-12-07T08:30:34;100481.15;;;0.75;100.00
64628;BME280;59036;50.960;0.314;2022-12-07T08:33:02;100474.96;;;0.80;100.00
64628;BME280;59036;50.960;0.314;2022-12-07T08:35:29;100475.42;;;1.65;100.00
64628;BME280;59036;50.960;0.314;2022-12-07T08:37:56;100475.37;;;1.62;100.00
64628;BME280;59036;50.960;0.314;2022-12-07T08:40:23;100472.16;;;0.51;100.00
64628;BME280;59036;50.960;0.314;2022-12-07T08:42:51;100472.45;;;0.78;100.00
64628;BME280;59036;50.960;0.314;2022-12-07T08:45:20;100473.78;;;1.13;100.00
64628;BME280;59036;50.960;0.314;2022-12-07T08:47:50;100468.73;;;0.77;100.00
64628;BME280;59036;50.960;0.314;2022-12-07T08:50:19;100469.97;;;1.17;100.00
64628;BME280;59036;50.960;0.314;2022-12-07T08:52:48;100475.46;;;1.05;100.00
64628;BME280;59036;50.960;0.314;2022-12-07T08:55:17;100475.01;;;1.58;100.00
64628;BME280;59036;50.960;0.314;2022-12-07T08:57:44;100473.62;;;1.09;100.00
64628;BME280;59036;50.960;0.314;2022-12-07T09:00:13;100471.67;;;0.62;100.00
64628;BME280;59036;50.960;0.314;2022-12-07T09:02:40;100471.95;;;1.21;100.00
64628;BME280;59036;50.960;0.314;2022-12-07T09:05:08;100470.45;;;1.48;100.00
64628;BME280;59036;50.960;0.314;2022-12-07T09:07:36;100470.20;;;1.88;100.00
64628;BME280;59036;50.960;0.314;2022-12-07T09:10:05;100467.76;;;1.00;100.00
64628;BME280;59036;50.960;0.314;2022-12-07T09:12:32;100465.99;;;0.57;100.00
64628;BME280;59036;50.960;0.314;2022-12-07T09:14:59;100461.48;;;1.47;100.00
64628;BME280;59036;50.960;0.314;2022-12-07T09:17:27;100464.09;;;1.38;100.00
64628;BME280;59036;50.960;0.314;2022-12-07T09:19:54;100459.76;;;0.85;100.00
64628;BME280;59036;50.960;0.314;2022-12-07T09:22:20;100463.97;;;1.35;100.00
64628;BME280;59036;50.960;0.314;2022-12-07T09:24:47;100461.38;;;1.99;100.00
64628;BME280;59036;50.960;0.314;2022-12-07T09:27:15;100466.04;;;1.22;100.00
64628;BME280;59036;50.960;0.314;2022-12-07T09:29:42;100467.02;;;1.06;100.00
64628;BME280;59036;50.960;0.314;2022-12-07T09:32:08;100464.25;;;1.59;100.00
64628;BME280;59036;50.960;0.314;2022-12-07T09:34:36;100466.12;;;1.75;100.00
64628;BME280;59036;50.960;0.314;2022-12-07T09:37:03;100462.33;;;2.50;100.00
64628;BME280;59036;50.960;0.314;2022-12-07T09:39:31;100462.92;;;1.99;100.00
64628;BME280;59036;50.960;0.314;2022-12-07T09:41:59;100466.53;;;1.80;100.00
64628;BME280;59036;50.960;0.314;2022-12-07T09:44:30;100470.49;;;2.59;100.00
64628;BME280;59036;50.960;0.314;2022-12-07T09:46:57;100464.85;;;3.30;100.00
64628;BME280;59036;50.960;0.314;2022-12-07T09:49:28;100467.14;;;3.14;100.00
64628;BME280;59036;50.960;0.314;2022-12-07T09:52:02;100468.50;;;2.58;100.00
64628;BME280;59036;50.960;0.314;2022-12-07T09:54:30;100465.32;;;2.61;100.00
64628;BME280;59036;50.960;0.314;2022-12-07T09:56:58;100467.47;;;2.34;100.00
64628;BME280;59036;50.960;0.314;2022-12-07T09:59:25;100465.55;;;2.17;100.00
64628;BME280;59036;50.960;0.314;2022-12-07T10:01:53;100457.78;;;2.51;100.00
64628;BME280;59036;50.960;0.314;2022-12-07T10:04:22;100458.90;;;2.14;100.00
64628;BME280;59036;50.960;0.314;2022-12-07T10:06:51;100458.50;;;2.13;100.00
64628;BME280;59036;50.960;0.314;2022-12-07T10:09:19;100453.82;;;2.04;100.00
64628;BME280;59036;50.960;0.314;2022-12-07T10:12:05;100452.81;;;2.01;100.00
64628;BME280;59036;50.960;0.314;2022-12-07T10:14:35;100453.43;;;1.36;100.00
64628;BME280;59036;50.960;0.314;2022-12-07T10:17:29;100448.56;;;1.42;100.00
64628;BME280;59036;50.960;0.314;2022-12-07T10:20:14;100448.71;;;1.38;100.00
64628;BME280;59036;50.960;0.314;2022-12-07T10:22:54;100441.61;;;0.84;100.00
64628;BME280;59036;50.960;0.314;2022-12-07T10:25:24;100434.06;;;1.47;100.00
64628;BME280;59036;50.960;0.314;2022-12-07T10:27:58;100435.25;;;1.59;100.00
64628;BME280;59036;50.960;0.314;2022-12-07T10:30:27;100430.62;;;2.52;100.00
64628;BME280;59036;50.960;0.314;2022-12-07T10:32:54;100418.50;;;2.49;100.00
64628;BME280;59036;50.960;0.314;2022-12-07T10:35:25;100419.70;;;2.82;100.00
64628;BME280;59036;50.960;0.314;2022-12-07T10:37:54;100420.33;;;2.20;100.00
64628;BME280;59036;50.960;0.314;2022-12-07T10:40:29;100414.36;;;2.36;100.00
64628;BME280;59036;50.960;0.314;2022-12-07T10:43:12;100402.78;;;3.18;100.00
64628;BME280;59036;50.960;0.314;2022-12-07T10:46:03;100403.06;;;2.66;100.00
64628;BME280;59036;50.960;0.314;2022-12-07T10:48:38;100399.83;;;2.98;100.00
64628;BME280;59036;50.960;0.314;2022-12-07T10:51:14;100393.98;;;2.48;100.00
64628;BME280;59036;50.960;0.314;2022-12-07T10:53:49;100393.84;;;2.35;100.00
64628;BME280;59036;50.960;0.314;2022-12-07T10:57:37;100394.24;;;2.48;100.00
64628;BME280;59036;50.960;0.314;2022-12-07T11:00:16;100392.30;;;2.82;100.00
64628;BME280;59036;50.960;0.314;2022-12-07T11:02:59;100389.94;;;3.11;98.33
64628;BME280;59036;50.960;0.314;2022-12-07T11:05:39;100385.22;;;3.33;95.11
64628;BME280;59036;50.960;0.314;2022-12-07T11:08:17;100383.39;;;3.57;95.40
64628;BME280;59036;50.960;0.314;2022-12-07T11:10:52;100381.90;;;4.71;92.69
64628;BME280;59036;50.960;0.314;2022-12-07T11:13:28;100377.02;;;3.83;93.57
64628;BME280;59036;50.960;0.314;2022-12-07T11:16:05;100373.90;;;3.55;93.91
64628;BME280;59036;50.960;0.314;2022-12-07T11:18:43;100367.51;;;4.68;91.68
64628;BME280;59036;50.960;0.314;2022-12-07T11:21:20;100363.61;;;4.70;91.07
64628;BME280;59036;50.960;0.314;2022-12-07T11:23:58;100358.21;;;4.98;89.59
64628;BME280;59036;50.960;0.314;2022-12-07T11:26:40;100358.88;;;5.10;90.38
64628;BME280;59036;50.960;0.314;2022-12-07T11:29:22;100356.76;;;4.53;90.63
64628;BME280;59036;50.960;0.314;2022-12-07T11:31:59;100350.47;;;5.42;88.61
64628;BME280;59036;50.960;0.314;2022-12-07T11:34:35;100346.15;;;4.30;89.01
64628;BME280;59036;50.960;0.314;2022-12-07T11:37:09;100345.39;;;4.85;91.55
64628;BME280;59036;50.960;0.314;2022-12-07T11:39:43;100346.44;;;3.99;92.03
64628;BME280;59036;50.960;0.314;2022-12-07T11:42:15;100342.73;;;4.77;90.88
64628;BME280;59036;50.960;0.314;2022-12-07T11:44:50;100342.68;;;3.63;92.52
64628;BME280;59036;50.960;0.314;2022-12-07T11:47:26;100337.71;;;4.19;93.28
64628;BME280;59036;50.960;0.314;2022-12-07T11:49:56;100332.15;;;4.41;92.86
64628;BME280;59036;50.960;0.314;2022-12-07T11:52:39;100328.15;;;3.38;93.65
64628;BME280;59036;50.960;0.314;2022-12-07T11:55:18;100323.93;;;3.98;92.75
64628;BME280;59036;50.960;0.314;2022-12-07T11:57:52;100326.43;;;4.82;91.49
64628;BME280;59036;50.960;0.314;2022-12-07T12:00:23;100320.68;;;5.33;90.41
64628;BME280;59036;50.960;0.314;2022-12-07T12:02:55;100319.11;;;4.26;90.53
64628;BME280;59036;50.960;0.314;2022-12-07T12:05:25;100320.38;;;4.34;91.94
64628;BME280;59036;50.960;0.314;2022-12-07T12:08:00;100316.70;;;4.33;90.09
64628;BME280;59036;50.960;0.314;2022-12-07T12:10:36;100316.21;;;4.45;90.16
64628;BME280;59036;50.960;0.314;2022-12-07T12:13:34;100317.28;;;4.23;90.53
64628;BME280;59036;50.960;0.314;2022-12-07T12:16:21;100310.43;;;4.03;88.90
64628;BME280;59036;50.960;0.314;2022-12-07T12:19:04;100312.23;;;4.11;91.06
64628;BME280;59036;50.960;0.314;2022-12-07T12:21:36;100309.09;;;3.73;91.66
64628;BME280;59036;50.960;0.314;2022-12-07T12:24:09;100308.53;;;4.56;90.79
64628;BME280;59036;50.960;0.314;2022-12-07T12:26:40;100307.71;;;4.52;91.19
64628;BME280;59036;50.960;0.314;2022-12-07T12:29:21;100303.81;;;4.42;92.07
64628;BME280;59036;50.960;0.314;2022-12-07T12:32:11;100301.13;;;4.33;91.54
64628;BME280;59036;50.960;0.314;2022-12-07T12:34:41;100301.90;;;3.39;94.13
64628;BME280;59036;50.960;0.314;2022-12-07T12:37:53;100299.43;;;3.92;94.02
64628;BME280;59036;50.960;0.314;2022-12-07T12:40:52;100296.99;;;4.32;92.87
64628;BME280;59036;50.960;0.314;2022-12-07T12:43:52;100293.42;;;3.23;94.90
64628;BME280;59036;50.960;0.314;2022-12-07T12:46:45;100289.54;;;3.94;93.66
64628;BME280;59036;50.960;0.314;2022-12-07T12:49:38;100284.17;;;4.88;90.20
64628;BME280;59036;50.960;0.314;2022-12-07T12:53:16;100279.37;;;5.06;90.16
64628;BME280;59036;50.960;0.314;2022-12-07T12:56:01;100277.82;;;4.84;90.15
64628;BME280;59036;50.960;0.314;2022-12-07T12:58:38;100278.91;;;4.86;90.69
64628;BME280;59036;50.960;0.314;2022-12-07T13:02:20;100276.99;;;5.03;88.90
64628;BME280;59036;50.960;0.314;2022-12-07T13:04:52;100274.32;;;5.00;87.90
64628;BME280;59036;50.960;0.314;2022-12-07T13:08:25;100274.95;;;4.42;89.93
64628;BME280;59036;50.960;0.314;2022-12-07T13:10:52;100268.84;;;4.45;91.96
64628;BME280;59036;50.960;0.314;2022-12-07T13:13:36;100268.00;;;4.93;89.21
64628;BME280;59036;50.960;0.314;2022-12-07T13:16:40;100265.71;;;4.72;89.08